Time;durP1;ratioP1;P1;durP2;ratioP2;P2;SDS_P1;SDS_P2;PMS_P1;PMS_P2;Temp;Humidity;BMP_temperature;BMP_pressure;BME280_temperature;BME280_humidity;BME280_pressure;Samples;Min_cycle;Max_cycle;Signal;HPM_P1;HPM_P2
2023/07/15 00:00:51;;;;;;;12.77;6.93;;;;;;;22.20;66.98;95005.63;5087417;28;20031;-86
2023/07/15 00:03:18;;;;;;;9.77;7.00;;;;;;;22.02;66.68;94966.44;5093755;28;20042;-86
2023/07/15 00:05:44;;;;;;;10.23;6.68;;;;;;;22.38;66.86;95013.09;5093863;28;20655;-85
2023/07/15 00:08:09;;;;;;;10.88;6.95;;;;;;;22.32;67.26;95007.75;5103173;28;20028;-86
2023/07/15 00:10:36;;;;;;;10.73;7.88;;;;;;;22.20;67.53;95004.81;5090091;28;20405;-84
2023/07/15 00:13:01;;;;;;;9.68;6.88;;;;;;;22.18;67.56;94991.81;5089881;28;20032;-85
2023/07/15 00:15:27;;;;;;;10.93;7.05;;;;;;;22.14;67.35;94985.22;5066741;28;20039;-85
2023/07/15 00:17:52;;;;;;;8.98;7.13;;;;;;;22.28;67.41;95009.97;5076448;28;20036;-85
2023/07/15 00:20:19;;;;;;;10.90;7.05;;;;;;;22.55;66.50;95008.28;5050382;28;20122;-84
2023/07/15 00:22:45;;;;;;;8.68;7.18;;;;;;;22.58;66.60;95012.38;5093359;28;20069;-84
2023/07/15 00:25:15;;;;;;;10.20;6.88;;;;;;;22.32;66.81;95005.94;5110448;28;20058;-86
2023/07/15 00:27:42;;;;;;;8.93;6.97;;;;;;;22.00;67.56;95005.47;5071537;28;20048;-85
2023/07/15 00:30:09;;;;;;;9.65;6.95;;;;;;;22.02;67.66;95005.31;5055756;28;20123;-86
2023/07/15 00:32:34;;;;;;;9.32;6.63;;;;;;;22.00;67.90;95002.84;5089837;28;20028;-85
2023/07/15 00:35:00;;;;;;;11.93;7.45;;;;;;;21.54;69.76;95003.31;5089240;28;20039;-85
2023/07/15 00:37:25;;;;;;;9.95;6.85;;;;;;;21.68;68.68;95012.16;5077367;28;20036;-85
2023/07/15 00:39:51;;;;;;;8.60;6.53;;;;;;;21.61;68.84;95001.53;5060570;28;20031;-85
2023/07/15 00:42:42;;;;;;;8.55;7.07;;;;;;;21.64;68.90;95008.25;5076572;28;20024;-86
2023/07/15 00:45:07;;;;;;;9.25;6.60;;;;;;;21.60;68.86;95009.66;5093552;28;20024;-86
2023/07/15 00:47:39;;;;;;;8.73;6.77;;;;;;;21.64;68.83;95016.19;5094005;28;20112;-86
2023/07/15 00:50:06;;;;;;;9.05;7.28;;;;;;;21.54;69.24;95013.06;5077655;28;20032;-86
2023/07/15 00:52:32;;;;;;;9.52;7.03;;;;;;;21.27;69.22;94980.25;5093626;28;20036;-85
2023/07/15 00:54:57;;;;;;;12.25;7.18;;;;;;;21.52;68.83;95012.44;5073192;28;20364;-85
2023/07/15 00:57:23;;;;;;;12.27;7.53;;;;;;;21.52;68.99;95004.50;5076528;28;20027;-85
2023/07/15 00:59:48;;;;;;;8.05;6.97;;;;;;;21.40;69.57;95018.22;5076895;28;20028;-85
2023/07/15 01:02:15;;;;;;;11.63;7.10;;;;;;;21.36;69.88;95009.00;5077363;28;20043;-86
2023/07/15 01:04:40;;;;;;;7.85;6.90;;;;;;;21.32;70.22;95014.84;5073041;28;20025;-85
2023/07/15 01:07:06;;;;;;;7.55;6.43;;;;;;;21.25;70.32;95011.31;5074465;28;20058;-86
2023/07/15 01:09:32;;;;;;;10.38;6.95;;;;;;;21.18;70.39;95017.34;5097131;28;20043;-85
2023/07/15 01:11:57;;;;;;;9.15;7.38;;;;;;;21.19;70.26;95023.44;5074559;28;20087;-86
2023/07/15 01:14:23;;;;;;;10.15;7.28;;;;;;;21.27;70.14;95019.88;5096590;28;20028;-86
2023/07/15 01:16:49;;;;;;;9.48;6.65;;;;;;;21.22;70.10;94999.31;5113542;28;20037;-86
2023/07/15 01:19:18;;;;;;;8.93;7.28;;;;;;;21.49;69.75;95031.31;5096915;28;20027;-86
2023/07/15 01:21:43;;;;;;;11.50;6.97;;;;;;;21.12;70.09;95001.47;5060961;28;20033;-85
2023/07/15 01:24:09;;;;;;;8.82;6.68;;;;;;;21.21;70.05;95021.44;5076083;28;20039;-86
2023/07/15 01:26:34;;;;;;;9.52;7.20;;;;;;;21.21;70.05;95021.44;5076328;28;20052;-85
2023/07/15 01:29:00;;;;;;;16.05;7.38;;;;;;;21.12;70.46;95020.75;5088097;28;20513;-86
2023/07/15 01:31:26;;;;;;;8.75;6.75;;;;;;;21.14;70.49;95020.56;5056302;28;20411;-86
2023/07/15 01:33:52;;;;;;;8.70;6.85;;;;;;;21.18;70.51;95024.47;5105709;28;20478;-85
2023/07/15 01:36:18;;;;;;;7.15;6.40;;;;;;;21.08;70.16;95006.28;5113635;28;20028;-86
2023/07/15 01:38:43;;;;;;;7.82;6.50;;;;;;;20.99;70.58;95007.41;5097777;28;20032;-84
2023/07/15 01:41:09;;;;;;;7.75;6.78;;;;;;;20.86;70.68;95005.41;5072691;28;20039;-86
2023/07/15 01:43:35;;;;;;;9.25;7.13;;;;;;;20.92;71.11;95023.19;5074697;28;20402;-86
2023/07/15 01:46:00;;;;;;;7.93;6.75;;;;;;;20.87;71.17;95020.28;5091993;28;20028;-86
2023/07/15 01:48:26;;;;;;;10.10;7.70;;;;;;;20.81;71.32;95010.47;5054919;28;20427;-86
2023/07/15 01:50:51;;;;;;;10.35;7.00;;;;;;;20.90;71.47;95025.19;5055896;28;20103;-86
2023/07/15 01:53:17;;;;;;;8.13;7.07;;;;;;;20.93;71.00;95019.53;5038538;28;20035;-86
2023/07/15 01:55:42;;;;;;;9.57;7.00;;;;;;;20.90;70.79;95022.53;5056086;28;20040;-85
2023/07/15 01:58:08;;;;;;;8.20;6.97;;;;;;;21.11;70.33;95031.50;5054777;28;20048;-85
2023/07/15 02:00:34;;;;;;;8.10;7.00;;;;;;;21.08;69.82;95011.56;5055731;28;20024;-86
2023/07/15 02:02:59;;;;;;;10.65;7.10;;;;;;;21.10;69.58;95014.03;5071919;28;20028;-86
2023/07/15 02:05:24;;;;;;;8.02;7.03;;;;;;;21.17;69.31;95025.47;5071858;28;20036;-86
2023/07/15 02:07:50;;;;;;;12.85;7.20;;;;;;;21.09;69.75;95021.13;5074915;28;20047;-86
2023/07/15 02:10:15;;;;;;;11.60;7.40;;;;;;;21.02;70.00;95027.34;5092123;28;20028;-85
2023/07/15 02:12:41;;;;;;;10.18;7.18;;;;;;;21.13;69.50;95032.13;5092031;28;20040;-85
2023/07/15 02:15:07;;;;;;;10.02;7.10;;;;;;;21.22;69.18;95023.06;5075691;28;20024;-87
2023/07/15 02:17:32;;;;;;;9.95;7.65;;;;;;;21.15;69.35;95022.22;5071950;28;20039;-86
2023/07/15 02:19:59;;;;;;;9.10;7.20;;;;;;;21.15;69.26;95024.84;5055163;28;20025;-86
2023/07/15 02:22:25;;;;;;;11.10;7.47;;;;;;;21.10;69.05;95014.03;5071326;28;20578;-85
2023/07/15 02:24:50;;;;;;;8.90;7.03;;;;;;;20.98;69.19;94993.38;5070545;28;20024;-87
2023/07/15 02:27:16;;;;;;;9.38;7.30;;;;;;;21.05;70.25;95022.50;5071656;28;20056;-87
2023/07/15 02:29:42;;;;;;;8.90;7.45;;;;;;;21.01;70.29;95025.72;5071560;28;20028;-86
2023/07/15 02:32:08;;;;;;;8.77;7.00;;;;;;;20.92;70.46;95030.25;5079095;28;20108;-87
2023/07/15 02:34:33;;;;;;;10.30;6.90;;;;;;;20.93;70.08;95024.81;5075182;28;20474;-84
2023/07/15 02:36:59;;;;;;;11.15;7.00;;;;;;;20.93;69.79;95027.44;5092160;28;20398;-86
2023/07/15 02:39:24;;;;;;;10.90;7.10;;;;;;;20.91;69.95;95023.34;5074927;28;20035;-86
2023/07/15 02:41:50;;;;;;;10.48;7.28;;;;;;;20.85;69.92;95011.72;5063911;28;20032;-87
2023/07/15 02:44:15;;;;;;;8.32;7.13;;;;;;;20.81;70.30;95020.19;5073043;28;20539;-85
2023/07/15 02:46:41;;;;;;;9.93;7.28;;;;;;;20.82;70.24;95012.09;5089777;28;20053;-86
2023/07/15 02:49:06;;;;;;;9.77;7.03;;;;;;;20.73;70.15;95007.94;5072779;28;20074;-85
2023/07/15 02:51:33;;;;;;;8.52;6.75;;;;;;;20.74;70.78;95020.94;5074883;28;20028;-86
2023/07/15 02:54:00;;;;;;;11.68;7.03;;;;;;;20.66;70.93;95017.56;5058197;28;20063;-86
2023/07/15 02:56:26;;;;;;;8.60;6.60;;;;;;;20.75;70.98;95019.09;5057454;28;20046;-86
2023/07/15 02:58:51;;;;;;;12.73;7.00;;;;;;;20.70;70.46;95013.56;5056976;28;20036;-87
2023/07/15 03:01:16;;;;;;;10.07;6.55;;;;;;;20.87;70.56;95025.56;5074701;28;20039;-86
2023/07/15 03:03:42;;;;;;;10.48;7.05;;;;;;;20.87;70.64;95032.66;5091582;28;20020;-87
2023/07/15 03:06:09;;;;;;;7.95;6.32;;;;;;;21.01;70.13;95036.28;5091409;28;20478;-87
2023/07/15 03:08:34;;;;;;;7.75;6.53;;;;;;;20.84;70.54;95015.38;5073809;28;20027;-87
2023/07/15 03:10:59;;;;;;;7.57;6.75;;;;;;;21.02;69.96;95019.41;5074387;28;20027;-86
2023/07/15 03:13:25;;;;;;;10.20;6.90;;;;;;;20.89;70.31;95028.81;5074299;28;20512;-85
2023/07/15 03:15:52;;;;;;;8.88;6.57;;;;;;;21.02;70.30;95022.88;5091259;28;20040;-87
2023/07/15 03:18:17;;;;;;;9.63;7.20;;;;;;;20.95;70.41;95032.56;5073999;28;20107;-87
2023/07/15 03:20:43;;;;;;;9.80;7.10;;;;;;;21.14;69.95;95039.84;5074239;28;20035;-87
2023/07/15 03:23:08;;;;;;;8.27;7.25;;;;;;;21.28;68.99;95030.25;5057368;28;20024;-87
2023/07/15 03:25:34;;;;;;;7.95;6.88;;;;;;;21.10;69.72;95048.34;5074221;28;20028;-87
2023/07/15 03:27:59;;;;;;;8.65;7.30;;;;;;;20.85;70.32;95034.66;5091725;28;20059;-88
2023/07/15 03:30:24;;;;;;;11.18;7.40;;;;;;;21.00;70.07;95046.00;5074450;28;20028;-87
2023/07/15 03:32:53;;;;;;;8.45;6.85;;;;;;;20.65;70.44;95008.84;5057286;28;20032;-88
2023/07/15 03:35:18;;;;;;;8.13;6.05;;;;;;;20.81;70.49;95036.88;5074432;28;20042;-87
2023/07/15 03:37:44;;;;;;;8.10;7.00;;;;;;;20.85;70.87;95046.03;5073605;28;20024;-87
2023/07/15 03:40:10;;;;;;;7.78;6.72;;;;;;;20.80;70.86;95051.03;5073971;28;20410;-87
2023/07/15 04:19:27;;;;;;;10.38;7.90;;;;;;;23.43;63.14;95026.97;5108398;27;20753;-72
2023/07/15 04:21:53;;;;;;;11.23;7.72;;;;;;;24.23;60.73;95053.50;5102145;28;20048;-72
2023/07/15 04:24:18;;;;;;;10.70;7.10;;;;;;;24.65;59.29;95057.53;5088222;28;20520;-72
2023/07/15 04:26:45;;;;;;;9.23;8.02;;;;;;;25.16;58.04;95062.13;5088001;28;20017;-72
2023/07/15 04:29:10;;;;;;;7.70;6.90;;;;;;;25.37;56.16;95058.31;5087952;28;20107;-73
2023/07/15 04:31:37;;;;;;;10.52;7.65;;;;;;;25.99;55.19;95060.38;5086743;28;20047;-73
2023/07/15 04:34:02;;;;;;;10.70;7.20;;;;;;;26.64;53.29;95068.06;5085410;28;20024;-74
2023/07/15 04:36:28;;;;;;;9.98;6.97;;;;;;;27.02;51.55;95064.34;5073424;28;20032;-73
2023/07/15 04:38:53;;;;;;;10.52;7.40;;;;;;;27.43;51.47;95063.63;5086734;28;20040;-73
2023/07/15 04:41:18;;;;;;;10.00;7.30;;;;;;;27.98;49.58;95076.84;5085698;28;20457;-73
2023/07/15 04:43:44;;;;;;;10.00;6.90;;;;;;;28.33;48.74;95072.56;5086382;28;20032;-72
2023/07/15 04:46:09;;;;;;;8.95;7.15;;;;;;;28.52;47.66;95066.91;5052274;28;20035;-74
2023/07/15 04:48:35;;;;;;;9.00;6.93;;;;;;;28.84;46.67;95071.91;5086245;28;20071;-78
2023/07/15 04:51:00;;;;;;;8.35;7.18;;;;;;;29.00;45.83;95081.03;5069517;28;20040;-72
2023/07/15 04:53:26;;;;;;;9.48;6.70;;;;;;;28.67;47.62;95079.00;5087564;28;20037;-76
2023/07/15 04:55:51;;;;;;;7.82;7.05;;;;;;;28.10;48.94;95068.84;5086988;28;20230;-76
2023/07/15 04:58:18;;;;;;;8.93;6.68;;;;;;;27.73;50.22;95065.50;5069456;28;20409;-80
2023/07/15 05:00:47;;;;;;;8.48;6.68;;;;;;;27.92;49.14;95063.59;5068822;28;20063;-76
2023/07/15 05:03:12;;;;;;;8.80;7.03;;;;;;;27.96;49.21;95073.56;5069442;28;20923;-76
2023/07/15 05:05:40;;;;;;;9.45;7.47;;;;;;;27.73;49.58;95063.63;5086183;28;20020;-75
2023/07/15 05:08:14;;;;;;;10.60;7.55;;;;;;;27.83;50.18;95073.78;5069304;28;20060;-75
2023/07/15 05:10:40;;;;;;;14.55;8.50;;;;;;;27.08;51.51;95064.28;5085833;28;20056;-78
2023/07/15 05:13:08;;;;;;;12.82;8.13;;;;;;;27.34;51.76;95073.00;5087434;28;20056;-75
2023/07/15 05:15:37;;;;;;;11.93;7.70;;;;;;;27.10;51.20;95069.38;5068639;28;20036;-76
2023/07/15 05:18:04;;;;;;;11.68;8.45;;;;;;;26.78;52.20;95071.38;5069125;28;20101;-74
2023/07/15 05:20:31;;;;;;;12.05;7.15;;;;;;;26.86;52.47;95076.44;5069086;28;20433;-77
2023/07/15 05:22:56;;;;;;;15.40;8.07;;;;;;;26.72;52.77;95073.09;5038841;28;20112;-73
2023/07/15 05:25:22;;;;;;;9.88;7.85;;;;;;;26.61;52.36;95058.66;5084962;28;20039;-75
2023/07/15 05:27:47;;;;;;;11.40;8.40;;;;;;;26.64;52.53;95068.84;5079933;28;20033;-72
2023/07/15 05:30:13;;;;;;;10.05;8.43;;;;;;;26.56;52.84;95074.47;5072284;28;20100;-74
2023/07/15 05:32:39;;;;;;;11.13;9.13;;;;;;;26.32;53.02;95051.31;5064369;28;20044;-75
2023/07/15 05:35:04;;;;;;;14.40;8.98;;;;;;;26.41;53.76;95061.47;5082386;28;20028;-76
2023/07/15 05:37:30;;;;;;;13.00;9.30;;;;;;;26.69;52.80;95061.03;5065287;28;20041;-75
2023/07/15 05:39:55;;;;;;;14.65;9.32;;;;;;;26.52;52.72;95057.28;5064642;28;20070;-76
2023/07/15 05:42:21;;;;;;;16.25;9.75;;;;;;;26.51;52.79;95063.66;5070465;28;20029;-76
2023/07/15 05:44:46;;;;;;;13.35;8.93;;;;;;;26.49;53.29;95061.19;5070176;28;20032;-76
2023/07/15 05:47:11;;;;;;;16.83;9.40;;;;;;;26.50;53.63;95072.66;5069588;28;20028;-76
2023/07/15 05:49:37;;;;;;;11.18;8.80;;;;;;;26.69;54.16;95074.34;5069059;28;20051;-76
2023/07/15 05:52:02;;;;;;;14.25;9.02;;;;;;;26.72;53.26;95079.22;5054504;28;20036;-75
2023/07/15 05:54:28;;;;;;;16.05;9.63;;;;;;;26.86;52.97;95061.25;5050399;28;20094;-77
2023/07/15 05:56:53;;;;;;;13.48;9.70;;;;;;;26.64;53.42;95076.84;5062656;28;20041;-75
2023/07/15 05:59:19;;;;;;;13.80;9.35;;;;;;;26.58;53.50;95085.72;5067538;28;20042;-75
2023/07/15 06:01:45;;;;;;;15.63;9.32;;;;;;;26.55;53.78;95083.50;5055002;28;20035;-76
2023/07/15 06:04:10;;;;;;;12.88;8.85;;;;;;;26.76;53.43;95089.44;5050706;28;20116;-75
2023/07/15 06:06:36;;;;;;;16.70;8.55;;;;;;;26.57;53.24;95064.63;5085869;28;20036;-75
2023/07/15 06:09:02;;;;;;;18.30;9.18;;;;;;;26.68;53.16;95083.34;5033742;28;20036;-75
2023/07/15 06:11:27;;;;;;;13.57;9.35;;;;;;;26.74;53.05;95074.50;5068123;28;20036;-75
2023/07/15 06:13:52;;;;;;;17.10;9.10;;;;;;;26.65;53.74;95077.66;5059609;28;20410;-75
2023/07/15 06:16:18;;;;;;;14.52;8.63;;;;;;;26.62;53.70;95078.91;5069147;28;20017;-75
2023/07/15 06:18:43;;;;;;;13.82;8.75;;;;;;;26.72;53.63;95065.91;5070814;28;20048;-75
2023/07/15 06:21:09;;;;;;;13.25;9.13;;;;;;;26.78;52.71;95079.38;5054015;28;20024;-75
2023/07/15 06:23:34;;;;;;;14.07;8.98;;;;;;;26.84;53.04;95065.16;5068932;28;20040;-75
2023/07/15 06:25:59;;;;;;;11.35;8.75;;;;;;;26.86;52.36;95049.78;5071931;28;20033;-75
2023/07/15 06:28:25;;;;;;;10.85;8.30;;;;;;;26.98;52.81;95066.63;5070280;28;20033;-75
2023/07/15 06:31:02;;;;;;;9.75;8.38;;;;;;;27.14;51.78;95054.56;5066829;28;20418;-75
2023/07/15 06:33:27;;;;;;;9.70;8.48;;;;;;;27.20;51.54;95052.88;5060182;28;20473;-75
2023/07/15 06:35:53;;;;;;;12.70;8.45;;;;;;;27.31;51.67;95044.13;5085105;28;20025;-75
2023/07/15 06:38:18;;;;;;;18.08;8.88;;;;;;;27.21;52.08;95054.50;5069905;28;20033;-75
2023/07/15 06:40:44;;;;;;;10.15;8.25;;;;;;;27.40;51.66;95064.09;5050958;28;20032;-75
2023/07/15 06:43:09;;;;;;;12.93;8.68;;;;;;;27.22;52.26;95046.28;5102384;28;20032;-75
2023/07/15 06:45:35;;;;;;;15.40;8.20;;;;;;;27.31;51.68;95038.78;5067087;28;20021;-75
2023/07/15 06:48:00;;;;;;;14.77;8.32;;;;;;;27.55;51.88;95051.19;5061131;28;20043;-75
2023/07/15 06:50:26;;;;;;;12.50;8.10;;;;;;;27.61;51.17;95039.59;5047531;28;20155;-75
2023/07/15 06:52:51;;;;;;;11.05;8.23;;;;;;;27.80;50.24;95051.03;5094523;28;20112;-76
2023/07/15 06:55:17;;;;;;;11.30;8.45;;;;;;;27.85;49.99;95050.34;5070517;28;20024;-76
2023/07/15 06:57:42;;;;;;;11.80;8.45;;;;;;;27.65;50.72;95047.13;5051646;28;20067;-75
2023/07/15 07:00:08;;;;;;;9.82;7.72;;;;;;;27.79;49.74;95061.91;5047254;28;20025;-76
2023/07/15 07:02:33;;;;;;;10.70;8.25;;;;;;;27.93;50.01;95052.69;5078192;28;20398;-76
2023/07/15 07:04:59;;;;;;;11.90;8.05;;;;;;;27.71;50.54;95035.53;5071313;28;20113;-75
2023/07/15 07:07:24;;;;;;;12.38;8.10;;;;;;;27.79;50.14;95057.41;5050549;28;20497;-76
2023/07/15 07:09:50;;;;;;;11.68;7.95;;;;;;;27.77;49.87;95047.97;5050813;28;20028;-78
2023/07/15 07:12:15;;;;;;;12.35;7.53;;;;;;;27.88;50.09;95049.06;5069183;28;20103;-78
2023/07/15 07:14:41;;;;;;;9.10;7.60;;;;;;;28.12;48.55;95050.75;5082886;28;20035;-72
2023/07/15 07:17:06;;;;;;;12.40;7.57;;;;;;;28.18;49.25;95059.69;5033322;28;20036;-74
2023/07/15 07:19:31;;;;;;;9.63;7.60;;;;;;;28.22;49.31;95052.81;5062782;28;20021;-74
2023/07/15 07:21:57;;;;;;;9.07;7.07;;;;;;;28.26;48.46;95067.34;5069056;28;20033;-74
2023/07/15 07:24:22;;;;;;;10.63;6.95;;;;;;;28.21;48.48;95046.69;5052402;28;20074;-74
2023/07/15 07:26:49;;;;;;;9.68;7.53;;;;;;;28.60;47.56;95056.94;5068225;28;20078;-74
2023/07/15 07:29:15;;;;;;;10.30;6.95;;;;;;;28.68;47.42;95057.38;5066348;28;20786;-74
2023/07/15 07:31:40;;;;;;;11.38;7.03;;;;;;;28.64;46.81;95036.69;5067694;28;20494;-74
2023/07/15 07:34:06;;;;;;;11.18;7.00;;;;;;;28.74;47.01;95055.63;5059621;28;20103;-74
2023/07/15 07:36:31;;;;;;;12.20;7.38;;;;;;;28.74;46.80;95051.09;5057666;28;20056;-74
2023/07/15 07:38:57;;;;;;;8.45;6.75;;;;;;;29.04;45.77;95047.47;5076268;28;20517;-74
2023/07/15 07:41:22;;;;;;;9.40;7.15;;;;;;;28.83;45.96;95048.88;5050905;28;20032;-75
2023/07/15 07:43:48;;;;;;;9.48;7.40;;;;;;;28.47;45.47;95052.63;5069268;28;20043;-74
2023/07/15 07:46:13;;;;;;;9.45;7.68;;;;;;;28.49;46.26;95053.22;5067166;28;20028;-74
2023/07/15 07:48:39;;;;;;;11.85;7.40;;;;;;;28.63;45.34;95046.59;5066010;28;20048;-74
2023/07/15 07:51:04;;;;;;;9.40;7.55;;;;;;;28.84;45.23;95037.16;5066881;28;20024;-74
2023/07/15 07:53:29;;;;;;;9.23;7.20;;;;;;;28.68;45.07;95028.00;5065835;28;20036;-73
2023/07/15 07:55:56;;;;;;;9.75;7.15;;;;;;;29.10;44.89;95043.84;5078082;28;20555;-73
2023/07/15 07:58:21;;;;;;;10.27;8.23;;;;;;;29.14;45.27;95023.63;5067909;28;20032;-73
2023/07/15 08:00:47;;;;;;;14.95;9.30;;;;;;;29.38;44.90;95031.53;5065934;28;20025;-72
2023/07/15 08:03:12;;;;;;;13.55;8.25;;;;;;;29.21;45.46;95031.50;5060379;28;20033;-73
2023/07/15 08:05:45;;;;;;;10.77;7.68;;;;;;;29.60;44.83;95024.47;5045803;28;20107;-72
2023/07/15 08:08:11;;;;;;;12.02;8.57;;;;;;;29.52;45.60;95038.22;5069141;28;20043;-71
2023/07/15 08:10:36;;;;;;;13.23;8.57;;;;;;;29.56;44.36;95028.69;5069556;28;20020;-72
2023/07/15 08:13:03;;;;;;;12.35;8.85;;;;;;;29.65;44.22;95047.84;5067043;28;20036;-72
2023/07/15 08:15:29;;;;;;;9.95;7.70;;;;;;;29.77;45.06;95037.09;5066274;28;20024;-73
2023/07/15 08:17:55;;;;;;;11.57;7.93;;;;;;;29.79;43.78;95046.50;5069346;28;20052;-72
2023/07/15 08:20:20;;;;;;;12.57;8.48;;;;;;;29.77;43.74;95039.75;5076490;28;20508;-73
2023/07/15 08:22:46;;;;;;;10.43;8.10;;;;;;;30.33;42.92;95046.03;5082597;28;20413;-73
2023/07/15 08:25:11;;;;;;;11.90;8.18;;;;;;;30.00;43.56;95028.91;5070738;28;20032;-72
2023/07/15 08:27:37;;;;;;;12.20;8.23;;;;;;;30.02;43.81;95045.53;5066117;28;20032;-73
2023/07/15 08:30:03;;;;;;;11.02;8.25;;;;;;;30.30;43.79;95037.69;5094605;28;20269;-72
2023/07/15 08:32:29;;;;;;;13.43;8.90;;;;;;;30.41;43.15;95044.81;5066872;28;20036;-72
2023/07/15 08:35:01;;;;;;;10.60;8.52;;;;;;;30.39;43.12;95042.38;5053676;28;20032;-72
2023/07/15 08:37:27;;;;;;;10.60;8.73;;;;;;;30.38;43.26;95035.41;5064644;28;20040;-73
2023/07/15 08:39:52;;;;;;;10.18;8.48;;;;;;;30.88;41.67;95028.34;5059447;28;20036;-73
2023/07/15 08:42:21;;;;;;;11.27;8.43;;;;;;;31.14;41.78;95032.16;5087160;28;20048;-73
2023/07/15 08:44:47;;;;;;;10.83;9.10;;;;;;;31.30;41.92;95042.00;5084479;28;20029;-73
2023/07/15 08:47:23;;;;;;;9.82;8.82;;;;;;;30.96;42.97;95046.69;5049577;28;20323;-72
2023/07/15 08:49:49;;;;;;;13.38;7.75;;;;;;;31.27;41.19;95030.97;5068282;28;20409;-73
2023/07/15 08:52:18;;;;;;;10.02;7.72;;;;;;;31.26;41.79;95035.53;5069960;28;20112;-72
2023/07/15 08:54:43;;;;;;;11.63;8.05;;;;;;;31.37;41.15;95023.88;5052188;28;20060;-73
2023/07/15 08:57:09;;;;;;;11.02;8.05;;;;;;;31.50;40.91;95029.88;5068228;28;20075;-73
2023/07/15 08:59:34;;;;;;;10.30;7.78;;;;;;;31.42;41.62;95028.47;5077918;28;20025;-73
2023/07/15 09:02:00;;;;;;;12.50;7.68;;;;;;;31.54;40.49;95021.09;5055460;28;20086;-73
2023/07/15 09:04:25;;;;;;;13.02;8.52;;;;;;;31.62;40.73;95027.84;5075091;28;20027;-73
2023/07/15 09:06:52;;;;;;;10.80;8.68;;;;;;;31.28;40.94;95019.97;5067066;28;20047;-73
2023/07/15 09:09:18;;;;;;;10.55;8.10;;;;;;;31.25;41.81;95027.72;5084883;28;20020;-73
2023/07/15 09:11:43;;;;;;;10.23;8.10;;;;;;;31.27;41.42;95022.91;5075659;28;20024;-72
2023/07/15 09:14:15;;;;;;;16.48;8.50;;;;;;;31.06;42.16;95027.22;5075292;28;20035;-73
2023/07/15 09:16:41;;;;;;;12.95;8.07;;;;;;;31.20;42.00;95030.34;5044055;28;20033;-72
2023/07/15 09:19:07;;;;;;;14.52;8.38;;;;;;;31.09;42.45;95035.59;5071779;28;20044;-72
2023/07/15 09:21:33;;;;;;;11.38;8.18;;;;;;;31.39;41.13;95028.97;5071789;28;20480;-72
2023/07/15 09:24:00;;;;;;;13.00;8.63;;;;;;;31.63;41.22;95029.50;5072123;28;20310;-73
2023/07/15 09:26:25;;;;;;;10.82;8.60;;;;;;;31.53;41.20;95008.72;5068827;28;20025;-73
2023/07/15 09:28:51;;;;;;;12.32;8.80;;;;;;;31.53;40.79;95008.72;5111041;27;20062;-73
2023/07/15 09:31:23;;;;;;;11.15;8.80;;;;;;;31.74;40.72;95025.84;5091845;28;20035;-72
2023/07/15 09:33:49;;;;;;;12.02;8.80;;;;;;;31.81;40.95;95014.88;5078716;28;20029;-72
2023/07/15 09:36:14;;;;;;;11.77;8.73;;;;;;;31.76;42.05;95017.50;5099001;28;20086;-72
2023/07/15 09:38:40;;;;;;;13.38;8.93;;;;;;;31.80;41.97;95007.91;5069991;28;20036;-73
2023/07/15 09:41:07;;;;;;;11.10;8.70;;;;;;;32.04;40.98;95006.53;5070310;28;20028;-73
2023/07/15 09:43:49;;;;;;;10.63;8.90;;;;;;;31.96;40.89;95006.19;5075059;28;20028;-72
2023/07/15 09:46:16;;;;;;;10.23;8.50;;;;;;;31.78;41.52;95010.00;5070580;28;20104;-73
2023/07/15 09:48:43;;;;;;;11.77;9.00;;;;;;;31.77;40.87;95014.59;5059472;28;20123;-73
2023/07/15 09:51:10;;;;;;;14.40;8.82;;;;;;;32.05;40.39;95008.13;5056563;28;20032;-73
2023/07/15 09:53:36;;;;;;;12.32;8.95;;;;;;;31.98;40.87;95007.56;5078083;27;20028;-73
2023/07/15 09:56:01;;;;;;;12.60;9.15;;;;;;;32.00;41.33;94997.34;5070070;28;20081;-74
2023/07/15 09:58:27;;;;;;;11.38;8.80;;;;;;;31.80;41.51;95005.22;5072394;28;20032;-73
2023/07/15 10:01:00;;;;;;;10.15;8.75;;;;;;;31.64;42.15;94990.84;5064670;28;20107;-74
2023/07/15 10:03:32;;;;;;;14.88;8.57;;;;;;;31.59;41.87;94985.41;5073678;28;20038;-73
2023/07/15 10:05:57;;;;;;;12.35;9.13;;;;;;;31.95;40.84;94994.59;5035031;28;20497;-73
2023/07/15 10:08:23;;;;;;;12.95;9.07;;;;;;;31.99;41.76;94995.72;5052114;28;20040;-73
2023/07/15 10:10:48;;;;;;;10.00;8.82;;;;;;;31.57;41.75;94993.72;5040913;28;20074;-74
2023/07/15 10:13:14;;;;;;;13.43;9.60;;;;;;;31.39;42.09;94996.75;5069452;28;20036;-73
2023/07/15 10:15:39;;;;;;;10.68;9.30;;;;;;;31.33;42.63;94989.69;5070719;28;20521;-73
2023/07/15 10:18:12;;;;;;;12.80;8.48;;;;;;;31.41;41.54;94981.22;5068549;28;20040;-73
2023/07/15 10:20:47;;;;;;;17.05;9.00;;;;;;;31.53;42.78;94992.59;5070933;28;20116;-73
2023/07/15 10:23:13;;;;;;;13.60;9.10;;;;;;;31.32;42.79;94994.25;5072824;28;20040;-72
2023/07/15 10:25:41;;;;;;;13.90;9.02;;;;;;;31.15;43.26;94980.13;5050890;28;20387;-72
2023/07/15 10:28:12;;;;;;;11.18;8.65;;;;;;;31.13;42.74;94992.97;5063102;28;20032;-72
2023/07/15 10:30:37;;;;;;;11.98;9.32;;;;;;;31.05;42.71;94994.22;5068929;28;20028;-72
2023/07/15 10:33:09;;;;;;;12.07;8.55;;;;;;;31.28;42.59;94992.31;5071108;28;20032;-73
2023/07/15 10:35:35;;;;;;;12.57;8.95;;;;;;;31.31;43.07;94997.19;5072018;28;20024;-72
2023/07/15 10:38:20;;;;;;;12.60;8.95;;;;;;;31.48;41.41;94989.06;5068657;28;20548;-72
2023/07/15 10:41:02;;;;;;;12.70;8.25;;;;;;;31.36;42.29;94981.16;5070448;28;20585;-72
2023/07/15 10:43:34;;;;;;;12.45;7.80;;;;;;;31.39;41.86;94989.53;5074084;28;20039;-72
2023/07/15 10:46:09;;;;;;;11.95;8.38;;;;;;;31.34;42.70;94991.31;5071293;28;20086;-72
2023/07/15 10:48:35;;;;;;;12.15;8.13;;;;;;;31.29;42.23;94981.34;5055679;28;20047;-73
2023/07/15 10:51:03;;;;;;;12.73;7.80;;;;;;;31.48;41.82;94979.16;5073756;28;20064;-72
2023/07/15 10:53:32;;;;;;;9.90;7.75;;;;;;;31.41;42.11;94983.91;5073478;28;20036;-72
2023/07/15 10:56:00;;;;;;;9.18;8.15;;;;;;;31.64;41.82;94987.34;5068633;28;20032;-72
2023/07/15 10:58:26;;;;;;;11.70;7.82;;;;;;;31.54;41.48;94964.72;5065623;28;20024;-72
2023/07/15 11:01:02;;;;;;;9.88;8.45;;;;;;;31.65;40.84;94971.00;5103963;28;20493;-72
2023/07/15 11:03:28;;;;;;;9.77;7.72;;;;;;;31.81;40.88;94980.78;5069220;28;20025;-73
2023/07/15 11:05:57;;;;;;;13.25;8.93;;;;;;;31.56;41.83;94970.63;5051958;28;20037;-72
2023/07/15 11:08:23;;;;;;;14.73;9.02;;;;;;;31.63;41.45;94980.38;5070180;28;20032;-72
2023/07/15 11:10:49;;;;;;;12.82;8.80;;;;;;;31.54;40.74;94963.91;5054345;28;20073;-72
2023/07/15 11:13:16;;;;;;;13.48;8.60;;;;;;;31.74;41.33;94974.00;5041830;28;20525;-72
2023/07/15 11:15:43;;;;;;;11.75;8.80;;;;;;;31.65;42.17;94975.53;5073805;28;20024;-72
2023/07/15 11:18:19;;;;;;;12.00;9.07;;;;;;;31.67;41.41;94970.72;5067172;28;20399;-72
2023/07/15 11:20:45;;;;;;;16.25;8.98;;;;;;;31.63;40.82;94970.44;5081295;28;20456;-72
2023/07/15 11:23:11;;;;;;;11.35;9.27;;;;;;;31.56;41.46;94959.09;5070899;28;20124;-73
2023/07/15 11:25:37;;;;;;;10.73;9.02;;;;;;;31.64;41.19;94971.22;5058282;28;20028;-72
2023/07/15 11:28:03;;;;;;;11.90;8.68;;;;;;;31.82;41.38;94968.19;5048535;28;20041;-73
2023/07/15 11:30:39;;;;;;;11.30;8.93;;;;;;;31.31;41.70;94947.00;5044221;28;20028;-73
2023/07/15 11:33:04;;;;;;;11.18;8.75;;;;;;;31.46;41.94;94954.44;5080089;28;20032;-73
2023/07/15 11:35:33;;;;;;;10.38;8.48;;;;;;;31.30;41.35;94939.22;5075971;28;20059;-74
2023/07/15 11:38:09;;;;;;;9.87;8.33;;;;;;;31.59;41.75;94959.41;5064927;28;20158;-73
2023/07/15 11:40:36;;;;;;;10.50;8.30;;;;;;;31.42;40.62;94947.94;5068867;28;20302;-73
2023/07/15 11:43:03;;;;;;;13.60;8.85;;;;;;;31.55;41.76;94954.78;5069684;28;20032;-73
2023/07/15 11:45:29;;;;;;;11.23;8.48;;;;;;;31.56;40.34;94954.50;5070456;28;20020;-73
2023/07/15 11:47:54;;;;;;;10.82;8.27;;;;;;;31.58;39.82;94946.22;5063423;28;20035;-73
2023/07/15 11:50:29;;;;;;;11.45;8.52;;;;;;;31.66;40.42;94956.50;5087483;28;20025;-73
2023/07/15 11:52:56;;;;;;;11.32;8.40;;;;;;;31.16;40.20;94957.59;5053150;28;20050;-73
2023/07/15 11:55:25;;;;;;;10.57;8.10;;;;;;;31.39;40.55;94948.47;5059163;28;20028;-73
2023/07/15 11:57:51;;;;;;;12.85;8.32;;;;;;;31.35;40.90;94947.34;5039104;28;20028;-73
2023/07/15 12:00:32;;;;;;;14.75;8.20;;;;;;;31.38;40.40;94942.28;5082685;28;20039;-73